Time;durP1;ratioP1;P1;durP2;ratioP2;P2;SDS_P1;SDS_P2;PMS_P1;PMS_P2;Temp;Humidity;BMP_temperature;BMP_pressure;BME280_temperature;BME280_humidity;BME280_pressure;Samples;Min_cycle;Max_cycle;Signal;HPM_P1;HPM_P2
2024/03/25 00:00:18;;;;;;;10.30;7.20;;;7.00;55.60;;;;;;5017755;28;20604;-84
2024/03/25 00:02:44;;;;;;;10.00;6.77;;;7.10;47.00;;;;;;5016252;28;20225;-86
2024/03/25 00:05:09;;;;;;;10.87;7.93;;;7.10;43.70;;;;;;5016450;28;20174;-85
2024/03/25 00:07:38;;;;;;;13.20;6.90;;;7.10;45.50;;;;;;5017225;28;20208;-84
2024/03/25 00:10:08;;;;;;;9.97;7.17;;;7.10;43.00;;;;;;5015250;28;20177;-84
2024/03/25 00:12:35;;;;;;;11.40;7.10;;;7.00;43.60;;;;;;5017983;28;20194;-84
2024/03/25 00:15:01;;;;;;;9.40;7.00;;;6.80;50.80;;;;;;5017001;28;20179;-85
2024/03/25 00:17:27;;;;;;;10.07;7.60;;;6.70;56.30;;;;;;5015947;28;20228;-84
2024/03/25 00:19:52;;;;;;;9.80;7.87;;;6.80;60.20;;;;;;5015062;28;20579;-83
2024/03/25 00:22:19;;;;;;;10.93;6.60;;;6.60;59.90;;;;;;5015453;28;20249;-83
2024/03/25 00:24:46;;;;;;;8.47;7.27;;;6.50;67.70;;;;;;5015440;28;20174;-84
2024/03/25 00:27:14;;;;;;;12.80;7.27;;;6.50;74.70;;;;;;5015283;28;20174;-83
2024/03/25 00:29:41;;;;;;;8.97;7.00;;;6.40;79.20;;;;;;5015918;28;20185;-84
2024/03/25 00:32:07;;;;;;;9.50;6.77;;;6.50;81.60;;;;;;5017268;28;20214;-85
2024/03/25 00:34:36;;;;;;;9.67;6.40;;;6.40;80.80;;;;;;5015721;28;20230;-84
2024/03/25 00:37:03;;;;;;;7.93;6.40;;;6.50;84.60;;;;;;5016090;28;20266;-84
2024/03/25 00:39:32;;;;;;;8.43;6.50;;;6.70;70.90;;;;;;5015977;28;20178;-84
2024/03/25 00:41:58;;;;;;;9.93;5.83;;;6.80;59.20;;;;;;5016188;28;20174;-86
2024/03/25 00:44:24;;;;;;;8.10;6.57;;;6.80;58.60;;;;;;5016508;28;20646;-83
2024/03/25 00:46:51;;;;;;;9.17;6.27;;;6.80;54.80;;;;;;5016485;28;20170;-84
2024/03/25 00:49:17;;;;;;;9.87;6.93;;;6.70;56.70;;;;;;5016986;28;20182;-84
2024/03/25 00:51:42;;;;;;;10.40;7.17;;;6.80;58.80;;;;;;5014551;28;20216;-83
2024/03/25 00:54:08;;;;;;;9.03;6.60;;;6.80;57.50;;;;;;5016133;28;20174;-83
2024/03/25 00:56:34;;;;;;;10.13;6.70;;;6.60;55.40;;;;;;5016425;28;20268;-83
2024/03/25 00:59:02;;;;;;;10.47;7.30;;;6.70;61.70;;;;;;5014426;28;20170;-85
2024/03/25 01:01:35;;;;;;;8.90;6.87;;;6.70;60.70;;;;;;5014174;28;20202;-86
2024/03/25 01:04:02;;;;;;;11.00;7.20;;;6.70;59.90;;;;;;5015461;28;20313;-84
2024/03/25 01:06:27;;;;;;;8.83;6.97;;;6.70;62.80;;;;;;5047769;28;20189;-83
2024/03/25 01:08:53;;;;;;;12.40;7.53;;;6.70;62.90;;;;;;5014898;28;20260;-84
2024/03/25 01:11:19;;;;;;;11.10;7.10;;;6.80;63.10;;;;;;5016272;28;20250;-84
2024/03/25 01:13:46;;;;;;;9.30;6.67;;;6.90;58.40;;;;;;5013809;28;20679;-86
2024/03/25 01:16:12;;;;;;;13.13;7.50;;;7.10;50.60;;;;;;5014512;28;20220;-84
2024/03/25 01:18:38;;;;;;;10.20;7.83;;;7.10;42.00;;;;;;5016790;28;20574;-84
2024/03/25 01:21:04;;;;;;;11.60;7.43;;;7.10;35.40;;;;;;5014119;28;20178;-85
2024/03/25 01:23:30;;;;;;;9.40;6.93;;;7.00;33.00;;;;;;5014964;28;20585;-84
2024/03/25 01:25:56;;;;;;;13.67;8.10;;;7.10;35.20;;;;;;5014600;28;20166;-84
2024/03/25 01:28:22;;;;;;;8.70;7.30;;;6.90;40.20;;;;;;5015706;28;20242;-83
2024/03/25 01:30:48;;;;;;;10.13;7.70;;;6.60;45.10;;;;;;5015604;28;20181;-83
2024/03/25 01:33:14;;;;;;;9.87;6.80;;;6.50;55.40;;;;;;5014355;28;20503;-83
2024/03/25 01:35:41;;;;;;;9.20;7.03;;;6.70;58.30;;;;;;5013540;28;20178;-83
2024/03/25 01:38:07;;;;;;;9.97;7.03;;;6.40;58.40;;;;;;5012729;28;20175;-81
2024/03/25 01:40:34;;;;;;;11.17;6.80;;;6.30;69.50;;;;;;5013687;28;20265;-83
2024/03/25 01:43:03;;;;;;;12.80;7.33;;;6.40;70.20;;;;;;5013399;28;20202;-84
2024/03/25 01:45:31;;;;;;;11.47;7.40;;;6.50;67.00;;;;;;5013379;28;20261;-84
2024/03/25 01:47:59;;;;;;;10.33;7.70;;;6.60;61.20;;;;;;5013987;28;20177;-82
2024/03/25 01:50:25;;;;;;;10.67;8.10;;;6.60;60.20;;;;;;5013595;28;20299;-83
2024/03/25 01:52:51;;;;;;;11.23;7.43;;;6.40;64.90;;;;;;5013597;28;20205;-81
2024/03/25 01:55:28;;;;;;;10.70;7.67;;;6.60;65.40;;;;;;5012186;28;20221;-84
2024/03/25 01:57:54;;;;;;;10.23;8.03;;;6.60;59.60;;;;;;5012814;28;20180;-82
2024/03/25 02:00:21;;;;;;;11.83;7.30;;;6.50;63.10;;;;;;5013343;28;20539;-82
2024/03/25 02:02:47;;;;;;;12.33;7.47;;;6.40;68.40;;;;;;5013304;28;20206;-83
2024/03/25 02:05:17;;;;;;;10.10;7.07;;;6.50;74.10;;;;;;5013009;28;20581;-82
2024/03/25 02:07:44;;;;;;;11.50;8.10;;;6.60;63.20;;;;;;5013876;28;20579;-83
2024/03/25 02:10:10;;;;;;;11.37;7.83;;;6.70;57.00;;;;;;5015098;28;20177;-83
2024/03/25 02:12:37;;;;;;;11.10;7.07;;;6.50;57.60;;;;;;5012937;28;20269;-83
2024/03/25 02:15:05;;;;;;;10.93;7.80;;;6.30;66.00;;;;;;5014745;28;20186;-83
2024/03/25 02:17:31;;;;;;;9.60;7.67;;;6.10;78.60;;;;;;5013135;28;20170;-83
2024/03/25 02:19:56;;;;;;;13.13;7.53;;;6.20;89.70;;;;;;5014071;28;20174;-82
2024/03/25 02:22:22;;;;;;;11.23;7.97;;;6.40;89.40;;;;;;5014198;28;20197;-83
2024/03/25 02:24:52;;;;;;;13.53;8.43;;;6.60;78.60;;;;;;5013999;28;20232;-85
2024/03/25 02:27:18;;;;;;;12.53;7.47;;;6.60;69.70;;;;;;5012143;28;20205;-83
2024/03/25 02:29:44;;;;;;;11.43;7.10;;;6.60;62.10;;;;;;5013652;28;20175;-84
2024/03/25 02:32:10;;;;;;;14.77;7.40;;;6.60;58.10;;;;;;5014024;28;20170;-83
2024/03/25 02:34:47;;;;;;;12.80;7.30;;;6.70;59.10;;;;;;5014018;28;20179;-82
2024/03/25 02:37:13;;;;;;;12.73;7.33;;;6.40;62.30;;;;;;5014282;28;20661;-83
2024/03/25 02:39:39;;;;;;;15.10;7.33;;;6.20;75.50;;;;;;5013691;28;20222;-84
2024/03/25 02:42:06;;;;;;;10.87;6.83;;;6.10;89.30;;;;;;5013374;28;20243;-84
2024/03/25 02:44:32;;;;;;;11.27;7.20;;;6.00;94.50;;;;;;5013178;28;20214;-83
2024/03/25 02:46:59;;;;;;;11.53;7.13;;;6.10;95.50;;;;;;5012977;28;20185;-83
2024/03/25 02:49:25;;;;;;;11.63;6.83;;;6.10;95.00;;;;;;5014924;28;20178;-83
2024/03/25 02:51:51;;;;;;;9.47;6.70;;;6.00;95.00;;;;;;5013686;28;20177;-83
2024/03/25 02:54:17;;;;;;;12.83;7.57;;;6.10;97.60;;;;;;5014801;28;20174;-82
2024/03/25 02:56:43;;;;;;;12.17;6.93;;;6.10;97.90;;;;;;5011311;28;20173;-82
2024/03/25 02:59:10;;;;;;;10.33;6.60;;;6.00;97.10;;;;;;5014200;28;20174;-82
2024/03/25 03:01:36;;;;;;;11.07;7.13;;;6.00;98.90;;;;;;5011373;28;20185;-82
2024/03/25 03:04:01;;;;;;;11.50;7.00;;;6.00;99.70;;;;;;5011935;28;20585;-82
2024/03/25 03:06:27;;;;;;;10.20;7.53;;;6.10;99.70;;;;;;5046062;28;20197;-82
2024/03/25 03:08:53;;;;;;;12.53;7.43;;;6.00;96.20;;;;;;5014113;28;20706;-84
2024/03/25 03:11:18;;;;;;;12.80;7.50;;;5.90;97.50;;;;;;5044732;28;20181;-82
2024/03/25 03:13:44;;;;;;;14.30;7.93;;;5.90;99.90;;;;;;5045473;28;20198;-83
2024/03/25 03:16:10;;;;;;;9.07;7.10;;;5.90;99.90;;;;;;5046635;28;20236;-84
2024/03/25 03:18:35;;;;;;;14.90;8.10;;;6.10;99.90;;;;;;5011759;28;20178;-83
2024/03/25 03:21:01;;;;;;;12.93;8.37;;;6.20;99.90;;;;;;5013369;28;20256;-82
2024/03/25 03:23:27;;;;;;;11.43;8.60;;;6.20;98.80;;;;;;5015289;28;20311;-83
2024/03/25 03:25:52;;;;;;;14.97;7.93;;;6.30;99.00;;;;;;5045885;28;20170;-82
2024/03/25 03:28:18;;;;;;;13.10;8.93;;;6.20;99.50;;;;;;5046044;28;20569;-83
2024/03/25 03:30:44;;;;;;;15.27;8.60;;;6.10;99.90;;;;;;5045900;28;20274;-84
2024/03/25 03:33:10;;;;;;;19.63;8.70;;;6.30;99.90;;;;;;5046117;28;20174;-83
2024/03/25 03:35:36;;;;;;;15.83;8.67;;;6.30;99.90;;;;;;5011451;28;20730;-83
2024/03/25 03:38:02;;;;;;;15.27;8.80;;;6.40;99.90;;;;;;5046708;28;20542;-83
2024/03/25 03:40:29;;;;;;;13.80;8.73;;;6.40;99.90;;;;;;5046108;28;20198;-84
2024/03/25 03:42:55;;;;;;;15.00;7.90;;;6.50;99.90;;;;;;5045671;28;20201;-82
2024/03/25 03:45:24;;;;;;;19.80;9.83;;;6.60;99.90;;;;;;5045146;28;20236;-83
2024/03/25 03:47:50;;;;;;;18.90;10.17;;;6.60;99.90;;;;;;5046486;28;20542;-83
2024/03/25 03:50:15;;;;;;;17.93;8.73;;;6.60;99.90;;;;;;5011152;28;20174;-83
2024/03/25 03:52:41;;;;;;;19.63;8.87;;;6.70;99.90;;;;;;5045922;28;20209;-83
2024/03/25 03:55:07;;;;;;;18.67;10.10;;;6.80;99.90;;;;;;5045792;28;20189;-83
2024/03/25 03:57:33;;;;;;;21.93;9.63;;;6.70;99.90;;;;;;5013891;28;20546;-84
2024/03/25 03:59:58;;;;;;;16.13;9.97;;;6.60;99.90;;;;;;5045412;28;20241;-85
2024/03/25 04:02:26;;;;;;;18.27;10.93;;;6.60;99.90;;;;;;5046110;28;20553;-83
2024/03/25 04:04:51;;;;;;;20.03;11.43;;;6.60;99.90;;;;;;5012210;28;20218;-83
2024/03/25 04:07:17;;;;;;;25.80;11.47;;;6.70;99.90;;;;;;5012257;28;20175;-83
2024/03/25 04:09:43;;;;;;;21.03;11.47;;;6.90;99.90;;;;;;5046169;28;20522;-84
2024/03/25 04:12:09;;;;;;;20.03;11.57;;;6.80;99.90;;;;;;5012315;28;20702;-82
2024/03/25 04:14:34;;;;;;;20.40;11.83;;;6.90;99.90;;;;;;5011282;28;20180;-84
2024/03/25 04:17:00;;;;;;;25.63;12.10;;;6.70;99.90;;;;;;5012589;28;20265;-82
2024/03/25 04:19:27;;;;;;;24.47;12.40;;;6.60;99.90;;;;;;5045786;28;20615;-82
2024/03/25 04:21:56;;;;;;;23.03;12.47;;;6.70;99.90;;;;;;5012429;28;20691;-83
2024/03/25 04:24:21;;;;;;;21.70;11.70;;;6.70;99.90;;;;;;5011637;28;20214;-83
2024/03/25 04:26:47;;;;;;;26.03;13.27;;;6.80;99.90;;;;;;5012346;28;20178;-83
2024/03/25 04:29:16;;;;;;;23.20;13.27;;;6.80;99.90;;;;;;5015855;28;20301;-83
2024/03/25 04:31:41;;;;;;;26.30;12.07;;;6.70;99.90;;;;;;5016340;28;20178;-83
2024/03/25 04:34:07;;;;;;;24.93;13.37;;;6.80;99.90;;;;;;5015296;28;20252;-82
2024/03/25 04:36:33;;;;;;;29.33;13.47;;;6.80;99.90;;;;;;5015332;28;20177;-83
2024/03/25 04:38:58;;;;;;;28.27;14.93;;;6.70;99.90;;;;;;5015975;28;20171;-83
2024/03/25 04:41:24;;;;;;;25.43;14.43;;;6.90;99.90;;;;;;5015137;28;20544;-83
2024/03/25 04:43:49;;;;;;;26.30;13.30;;;6.70;99.90;;;;;;5016649;28;20614;-83
2024/03/25 04:46:15;;;;;;;26.13;14.00;;;6.80;99.90;;;;;;5048621;28;20178;-82
2024/03/25 04:48:41;;;;;;;22.70;14.47;;;6.70;99.90;;;;;;5017260;28;20697;-82
2024/03/25 04:51:08;;;;;;;26.50;13.33;;;6.70;99.90;;;;;;5015532;28;20728;-83
2024/03/25 04:53:34;;;;;;;30.33;13.87;;;6.70;99.90;;;;;;5015600;28;20654;-82
2024/03/25 04:56:00;;;;;;;30.53;14.53;;;6.80;99.90;;;;;;5014653;28;20186;-83
2024/03/25 04:58:26;;;;;;;29.13;15.50;;;6.80;99.90;;;;;;5014020;28;20174;-82
2024/03/25 05:00:52;;;;;;;22.10;15.37;;;6.80;99.90;;;;;;5016999;28;20165;-83
2024/03/25 05:03:18;;;;;;;27.03;16.53;;;6.90;99.90;;;;;;5015655;28;20216;-83
2024/03/25 05:05:44;;;;;;;32.03;16.67;;;6.90;99.90;;;;;;5015032;28;20178;-82
2024/03/25 05:08:09;;;;;;;26.77;14.97;;;6.90;99.90;;;;;;5015536;28;20189;-82
2024/03/25 05:10:35;;;;;;;27.47;16.20;;;7.00;99.90;;;;;;5015905;28;20623;-82
2024/03/25 05:13:01;;;;;;;28.23;14.63;;;6.90;99.90;;;;;;5015540;28;20228;-82
2024/03/25 05:15:26;;;;;;;27.67;16.70;;;6.80;99.90;;;;;;5015906;28;20635;-82
2024/03/25 05:17:52;;;;;;;27.67;16.27;;;6.80;99.90;;;;;;5017014;28;20170;-83
2024/03/25 05:20:18;;;;;;;29.40;15.53;;;6.90;99.90;;;;;;5014793;28;20654;-83
2024/03/25 05:22:44;;;;;;;31.07;16.13;;;7.00;99.90;;;;;;5014059;28;20480;-83
2024/03/25 05:25:09;;;;;;;29.07;15.73;;;7.00;99.90;;;;;;5013816;28;20205;-83
2024/03/25 05:27:35;;;;;;;27.60;16.40;;;7.00;99.90;;;;;;5013774;28;20743;-83
2024/03/25 05:30:01;;;;;;;31.07;15.90;;;7.00;99.90;;;;;;5012585;28;20724;-82
2024/03/25 05:32:26;;;;;;;30.17;16.93;;;7.10;99.90;;;;;;5014008;28;20181;-82
2024/03/25 05:34:52;;;;;;;35.60;17.83;;;7.10;99.90;;;;;;5046510;28;20530;-83
2024/03/25 05:37:18;;;;;;;27.83;16.70;;;7.10;99.90;;;;;;5013754;28;20189;-83
2024/03/25 05:39:44;;;;;;;31.37;18.17;;;7.00;99.90;;;;;;5014332;28;20175;-83
2024/03/25 05:42:09;;;;;;;30.83;17.13;;;6.90;99.90;;;;;;5013722;28;20177;-83
2024/03/25 05:44:35;;;;;;;30.77;17.67;;;7.00;99.90;;;;;;5014370;28;20298;-82
2024/03/25 05:47:01;;;;;;;31.27;18.20;;;7.00;99.90;;;;;;5014555;28;20628;-82
2024/03/25 05:49:26;;;;;;;34.37;19.00;;;7.00;99.90;;;;;;5014421;28;20210;-84
2024/03/25 05:51:52;;;;;;;33.90;17.70;;;7.00;99.90;;;;;;5013896;28;20180;-83
2024/03/25 05:54:18;;;;;;;31.47;17.67;;;7.00;99.90;;;;;;5013859;28;20750;-82
2024/03/25 05:56:44;;;;;;;30.43;17.47;;;7.00;99.90;;;;;;5014310;28;20178;-82
2024/03/25 05:59:10;;;;;;;34.40;17.60;;;7.00;99.90;;;;;;5013044;28;20257;-82
2024/03/25 06:01:37;;;;;;;32.40;18.43;;;7.10;99.90;;;;;;5013485;28;20185;-82
2024/03/25 06:04:03;;;;;;;28.77;16.73;;;7.10;99.90;;;;;;5014115;28;20221;-83
2024/03/25 06:06:29;;;;;;;35.30;16.70;;;7.20;99.90;;;;;;5013478;28;20248;-83
2024/03/25 06:08:55;;;;;;;36.93;17.00;;;7.30;99.90;;;;;;5013119;28;20631;-82
2024/03/25 06:11:21;;;;;;;30.13;17.10;;;7.30;99.90;;;;;;5012818;28;20193;-83
2024/03/25 06:13:47;;;;;;;29.27;15.90;;;7.40;99.90;;;;;;5013029;28;20201;-82
2024/03/25 06:16:13;;;;;;;25.97;16.67;;;7.50;99.90;;;;;;5014205;28;20174;-82
2024/03/25 06:18:40;;;;;;;26.17;15.50;;;7.50;99.90;;;;;;5014903;28;20175;-83
2024/03/25 06:21:06;;;;;;;30.03;14.93;;;7.50;99.90;;;;;;5012614;28;20170;-83
2024/03/25 06:23:32;;;;;;;29.20;15.37;;;7.60;99.90;;;;;;5013659;28;20202;-82
2024/03/25 06:25:57;;;;;;;32.67;16.10;;;7.50;99.90;;;;;;5014624;28;20173;-83
2024/03/25 06:28:24;;;;;;;34.37;22.37;;;7.70;99.90;;;;;;5013036;28;20166;-83
2024/03/25 06:36:20;;;;;;;27.47;14.77;;;7.60;99.90;;;;;;5014658;28;20213;-82
2024/03/25 06:38:46;;;;;;;29.97;15.17;;;7.60;99.90;;;;;;5012639;28;20178;-83
2024/03/25 06:41:12;;;;;;;27.43;14.40;;;7.70;99.90;;;;;;5012612;28;20176;-83
2024/03/25 06:43:38;;;;;;;28.63;14.87;;;7.70;99.90;;;;;;5011664;28;20217;-83
2024/03/25 06:46:07;;;;;;;24.87;13.80;;;7.70;99.90;;;;;;5011592;28;20181;-82
2024/03/25 06:48:37;;;;;;;25.53;13.60;;;7.70;99.90;;;;;;5011759;28;20204;-83
2024/03/25 06:51:03;;;;;;;34.07;13.53;;;7.80;99.90;;;;;;5011963;28;20174;-81
2024/03/25 06:53:30;;;;;;;22.83;13.43;;;7.80;99.90;;;;;;5011684;28;20231;-82
2024/03/25 06:55:58;;;;;;;24.93;14.30;;;7.80;99.30;;;;;;5012406;28;20174;-82
2024/03/25 06:58:25;;;;;;;27.47;13.67;;;7.80;99.70;;;;;;5011214;28;20170;-83
2024/03/25 07:00:52;;;;;;;25.37;14.30;;;7.90;98.70;;;;;;5044539;28;20708;-84
2024/03/25 07:03:18;;;;;;;25.50;13.00;;;7.90;98.70;;;;;;5012443;28;20210;-85
2024/03/25 07:05:46;;;;;;;25.83;13.00;;;8.00;97.90;;;;;;5045378;28;20265;-84
2024/03/25 07:08:12;;;;;;;25.10;13.67;;;8.00;96.00;;;;;;5012622;28;20184;-83
2024/03/25 07:10:38;;;;;;;26.50;12.53;;;8.00;94.30;;;;;;5012617;28;20529;-83
2024/03/25 07:13:05;;;;;;;26.63;13.03;;;8.00;94.00;;;;;;5010401;28;20202;-85
2024/03/25 07:15:31;;;;;;;25.23;14.47;;;7.90;94.20;;;;;;5045340;28;20178;-84
2024/03/25 07:17:57;;;;;;;24.33;12.70;;;8.00;94.80;;;;;;5011953;28;20596;-84
2024/03/25 07:20:23;;;;;;;20.20;12.77;;;8.00;93.50;;;;;;5012936;28;20284;-84
2024/03/25 07:22:49;;;;;;;21.97;11.30;;;8.10;92.30;;;;;;5014765;28;20181;-84
2024/03/25 07:25:15;;;;;;;23.10;11.60;;;8.20;90.90;;;;;;5012629;28;20178;-83
2024/03/25 07:27:41;;;;;;;17.23;11.00;;;8.20;90.00;;;;;;5013804;28;20643;-82
2024/03/25 07:30:07;;;;;;;20.67;11.37;;;8.20;87.50;;;;;;5015078;28;20325;-83
2024/03/25 07:32:34;;;;;;;20.37;11.07;;;8.30;82.10;;;;;;5013525;28;20229;-82
2024/03/25 07:35:00;;;;;;;19.30;10.57;;;8.40;78.90;;;;;;5024456;28;20185;-84
2024/03/25 07:37:26;;;;;;;19.37;10.57;;;8.40;69.40;;;;;;5020563;28;20550;-81
2024/03/25 07:39:52;;;;;;;22.50;11.30;;;8.50;68.70;;;;;;5029762;28;20208;-81
2024/03/25 07:42:18;;;;;;;20.53;12.50;;;8.70;66.20;;;;;;5031084;28;20174;-82
2024/03/25 07:44:44;;;;;;;23.87;10.73;;;8.70;61.30;;;;;;5017743;28;20214;-82
2024/03/25 07:47:10;;;;;;;19.37;10.00;;;8.80;56.90;;;;;;5011776;28;20270;-83
2024/03/25 07:49:35;;;;;;;18.47;9.87;;;8.90;49.60;;;;;;5011698;28;20665;-83
2024/03/25 07:52:01;;;;;;;20.50;10.40;;;9.00;46.90;;;;;;5013298;28;20171;-81
2024/03/25 07:54:28;;;;;;;16.77;9.37;;;9.10;41.60;;;;;;5026797;28;20281;-81
2024/03/25 07:56:54;;;;;;;22.07;9.83;;;9.20;35.30;;;;;;5013345;28;20577;-85
2024/03/25 07:59:19;;;;;;;22.30;9.80;;;9.30;30.60;;;;;;5011830;28;20174;-82
2024/03/25 08:01:45;;;;;;;15.80;8.93;;;9.40;25.70;;;;;;5016294;28;20193;-84
2024/03/25 08:04:11;;;;;;;16.63;9.50;;;9.50;20.70;;;;;;5014308;28;20249;-84
2024/03/25 08:06:36;;;;;;;20.70;8.77;;;9.60;18.00;;;;;;5015471;28;20238;-83
2024/03/25 08:09:05;;;;;;;15.93;8.80;;;9.70;13.10;;;;;;5014854;28;20650;-83
2024/03/25 08:11:32;;;;;;;19.97;9.17;;;9.70;7.50;;;;;;5013330;28;20220;-83
2024/03/25 08:13:58;;;;;;;20.17;8.57;;;9.50;5.80;;;;;;5015257;28;20194;-84
2024/03/25 08:16:24;;;;;;;20.30;9.97;;;9.50;11.50;;;;;;5015681;28;20170;-83
2024/03/25 08:18:50;;;;;;;21.80;10.83;;;9.60;11.10;;;;;;5014202;28;20178;-84
2024/03/25 08:21:16;;;;;;;19.47;9.13;;;9.70;8.30;;;;;;5014929;28;20229;-82
2024/03/25 08:23:45;;;;;;;20.40;9.07;;;9.70;7.20;;;;;;5015062;28;20757;-82
2024/03/25 08:26:11;;;;;;;19.50;10.13;;;9.80;5.00;;;;;;5015032;28;20178;-82
2024/03/25 08:28:37;;;;;;;22.37;8.97;;;9.70;2.30;;;;;;5014592;28;20185;-82
2024/03/25 08:31:03;;;;;;;12.80;8.47;;;9.70;4.80;;;;;;5013828;28;20201;-82
2024/03/25 08:33:29;;;;;;;18.20;8.70;;;9.70;4.30;;;;;;5014712;28;20179;-82
2024/03/25 08:35:55;;;;;;;20.20;9.10;;;9.90;3.40;;;;;;5015770;28;20174;-83
2024/03/25 08:38:21;;;;;;;17.00;8.97;;;9.90;2.70;;;;;;5015177;28;20185;-81
2024/03/25 08:40:47;;;;;;;21.03;9.17;;;9.80;1.30;;;;;;5016621;28;20193;-82
2024/03/25 08:43:12;;;;;;;17.67;9.23;;;9.70;5.70;;;;;;5016815;28;20260;-81
2024/03/25 08:45:38;;;;;;;17.43;9.43;;;9.70;9.80;;;;;;5014223;28;20171;-83
2024/03/25 08:48:04;;;;;;;18.37;9.13;;;9.90;6.20;;;;;;5015303;28;20185;-82
2024/03/25 08:50:30;;;;;;;17.83;8.30;;;10.20;1.90;;;;;;5014509;28;20257;-82
2024/03/25 08:52:55;;;;;;;18.37;9.00;;;10.20;1.00;;;;;;5015078;28;20178;-83
2024/03/25 08:55:21;;;;;;;16.80;8.97;;;10.30;1.00;;;;;;5015754;28;20635;-82
2024/03/25 08:57:47;;;;;;;17.60;9.80;;;10.40;1.00;;;;;;5016350;28;20584;-83
2024/03/25 09:00:13;;;;;;;17.53;8.90;;;10.40;1.00;;;;;;5014648;28;20178;-83
2024/03/25 09:02:39;;;;;;;15.50;8.70;;;10.60;1.00;;;;;;5015437;28;20274;-81
2024/03/25 09:05:05;;;;;;;14.60;8.63;;;10.70;1.00;;;;;;5014217;28;20532;-83
2024/03/25 09:07:31;;;;;;;16.33;8.57;;;10.80;1.00;;;;;;5013028;28;20174;-82
2024/03/25 09:12:41;;;;;;;17.43;8.07;;;10.90;1.00;;;;;;5014739;28;20212;-81
2024/03/25 09:15:07;;;;;;;16.27;7.97;;;10.90;1.00;;;;;;5013179;28;20655;-82
2024/03/25 09:17:32;;;;;;;16.13;7.87;;;11.00;1.00;;;;;;5012853;28;20694;-83
2024/03/25 09:19:58;;;;;;;13.90;8.00;;;11.20;1.00;;;;;;5013736;28;20186;-82
2024/03/25 09:22:24;;;;;;;15.17;7.83;;;11.20;1.00;;;;;;5015455;28;20630;-82
2024/03/25 09:24:49;;;;;;;16.43;8.13;;;11.30;1.00;;;;;;5015531;28;20214;-82
2024/03/25 09:27:15;;;;;;;16.97;8.17;;;11.30;1.00;;;;;;5013641;28;20175;-83
2024/03/25 09:29:44;;;;;;;13.10;8.23;;;11.30;1.00;;;;;;5015230;28;20699;-83
2024/03/25 09:32:09;;;;;;;14.03;7.87;;;11.30;1.00;;;;;;5013976;28;20186;-83
2024/03/25 09:34:35;;;;;;;13.93;7.90;;;11.40;1.00;;;;;;5046543;28;20187;-84
2024/03/25 09:37:01;;;;;;;13.53;7.30;;;11.40;1.00;;;;;;5015548;28;20191;-82
2024/03/25 09:39:27;;;;;;;13.00;7.30;;;11.40;1.00;;;;;;5015352;28;20205;-84
2024/03/25 09:41:57;;;;;;;12.50;7.33;;;11.50;1.00;;;;;;5015500;28;20187;-83
2024/03/25 09:44:25;;;;;;;14.33;6.63;;;11.60;1.00;;;;;;5013339;28;20276;-83
2024/03/25 09:46:51;;;;;;;13.07;6.80;;;11.50;1.00;;;;;;5013900;28;20221;-82
2024/03/25 09:49:17;;;;;;;14.00;7.43;;;11.50;1.00;;;;;;5013374;28;20175;-82
2024/03/25 09:51:43;;;;;;;13.07;6.83;;;11.50;1.00;;;;;;5013920;28;20181;-83
2024/03/25 09:54:09;;;;;;;12.90;7.30;;;11.50;1.00;;;;;;5014148;28;20651;-83
2024/03/25 09:56:36;;;;;;;14.67;6.90;;;11.50;1.00;;;;;;5015193;28;20627;-84
2024/03/25 09:59:03;;;;;;;11.17;6.87;;;11.60;1.00;;;;;;5014025;28;20179;-83
2024/03/25 10:01:29;;;;;;;13.30;6.80;;;11.70;1.00;;;;;;5013474;28;20635;-83
2024/03/25 10:03:55;;;;;;;11.53;6.40;;;11.90;1.00;;;;;;5014665;28;20224;-82
2024/03/25 10:06:21;;;;;;;12.33;7.37;;;12.10;1.00;;;;;;5012679;28;20261;-84
2024/03/25 10:08:47;;;;;;;14.17;7.13;;;12.20;1.00;;;;;;5012570;28;20178;-83
2024/03/25 10:11:13;;;;;;;15.10;6.97;;;12.30;1.00;;;;;;5014888;28;20173;-84
2024/03/25 10:13:40;;;;;;;14.83;6.97;;;12.50;1.00;;;;;;5013336;28;20194;-82
2024/03/25 10:16:07;;;;;;;11.10;7.20;;;12.60;1.00;;;;;;5013532;28;20290;-83
2024/03/25 10:18:33;;;;;;;12.50;6.50;;;12.60;1.00;;;;;;5013499;28;20665;-83
2024/03/25 10:20:59;;;;;;;10.57;6.03;;;12.60;1.00;;;;;;5013394;28;20199;-82
2024/03/25 10:23:25;;;;;;;11.67;5.70;;;12.80;1.00;;;;;;5013144;28;20619;-82
2024/03/25 10:25:54;;;;;;;13.70;5.50;;;12.80;1.00;;;;;;5045037;28;20171;-82
2024/03/25 10:28:20;;;;;;;13.23;5.47;;;12.70;1.00;;;;;;5012698;28;20177;-82
2024/03/25 10:30:47;;;;;;;7.70;5.23;;;12.70;1.00;;;;;;5014508;28;20170;-82
2024/03/25 10:33:12;;;;;;;11.37;5.40;;;12.70;1.00;;;;;;5014796;28;20164;-81
2024/03/25 10:35:40;;;;;;;9.03;4.70;;;12.70;1.00;;;;;;5012646;28;20185;-82
2024/03/25 10:38:08;;;;;;;7.17;3.73;;;12.80;1.00;;;;;;5014476;28;20569;-82
2024/03/25 10:40:39;;;;;;;8.90;4.27;;;13.00;1.00;;;;;;5013014;28;20176;-84
2024/03/25 10:43:16;;;;;;;10.00;4.50;;;13.30;99.90;;;;;;5011944;28;20197;-82
2024/03/25 10:45:45;;;;;;;9.33;4.40;;;13.40;99.90;;;;;;5013111;28;20169;-83
2024/03/25 10:48:28;;;;;;;10.63;4.10;;;13.50;99.90;;;;;;5013837;28;20263;-83
2024/03/25 10:50:56;;;;;;;7.03;4.10;;;13.60;99.90;;;;;;5014076;28;20194;-83
2024/03/25 10:53:25;;;;;;;5.87;3.73;;;13.60;99.90;;;;;;5014381;28;20174;-83
2024/03/25 10:55:55;;;;;;;6.20;3.17;;;13.50;1.00;;;;;;5012976;28;20177;-83
2024/03/25 10:58:22;;;;;;;7.63;3.90;;;13.50;92.40;;;;;;5012972;28;20177;-83
2024/03/25 11:00:56;;;;;;;8.47;3.53;;;13.80;99.90;;;;;;5013770;28;20262;-82
2024/03/25 11:03:23;;;;;;;8.30;3.53;;;14.00;1.00;;;;;;5011583;28;20209;-83
2024/03/25 11:05:49;;;;;;;7.07;3.50;;;14.10;99.90;;;;;;5012274;28;20178;-82
2024/03/25 11:08:16;;;;;;;6.20;3.17;;;14.10;99.90;;;;;;5012867;28;20185;-82
2024/03/25 11:10:46;;;;;;;7.30;2.90;;;14.30;99.90;;;;;;5012851;28;20516;-83
2024/03/25 11:13:19;;;;;;;6.60;2.93;;;14.30;62.70;;;;;;5013652;28;20191;-81
2024/03/25 11:15:47;;;;;;;7.13;3.43;;;14.30;1.00;;;;;;5014036;28;20300;-83
2024/03/25 11:18:14;;;;;;;6.00;2.63;;;14.60;99.90;;;;;;5012085;28;20181;-84
2024/03/25 11:20:40;;;;;;;5.80;2.50;;;14.60;99.90;;;;;;5013149;28;20162;-82
2024/03/25 11:23:10;;;;;;;7.13;2.73;;;14.70;99.90;;;;;;5012250;28;20198;-82
2024/03/25 11:25:36;;;;;;;5.03;2.70;;;14.80;1.00;;;;;;5012010;28;20217;-84
2024/03/25 11:28:03;;;;;;;6.20;2.80;;;14.70;99.90;;;;;;5013036;28;20662;-83
2024/03/25 11:30:31;;;;;;;5.07;2.80;;;14.40;1.00;;;;;;5010906;28;20174;-82
2024/03/25 11:32:58;;;;;;;4.70;2.57;;;14.40;39.30;;;;;;5011901;28;20182;-82
2024/03/25 11:35:24;;;;;;;5.57;2.70;;;14.70;1.00;;;;;;5011957;28;20190;-84
2024/03/25 11:37:51;;;;;;;5.13;2.40;;;14.90;1.00;;;;;;5015220;28;20522;-83
2024/03/25 11:40:18;;;;;;;7.27;2.37;;;15.20;99.90;;;;;;5016143;28;20253;-82
2024/03/25 11:42:45;;;;;;;5.30;2.50;;;15.30;1.00;;;;;;5015914;28;20198;-83
2024/03/25 11:45:21;;;;;;;5.23;2.33;;;15.30;99.90;;;;;;5015618;28;20305;-83
2024/03/25 11:47:48;;;;;;;6.03;2.47;;;15.20;99.90;;;;;;5015709;28;20272;-81
2024/03/25 11:50:18;;;;;;;6.90;2.90;;;14.90;99.90;;;;;;5015297;28;20202;-82
2024/03/25 11:52:44;;;;;;;4.77;2.10;;;14.70;1.00;;;;;;5015762;28;20179;-82
2024/03/25 11:55:11;;;;;;;5.60;2.30;;;14.80;1.00;;;;;;5015585;28;20269;-82
2024/03/25 11:57:38;;;;;;;4.63;2.57;;;14.90;1.00;;;;;;5014791;28;20164;-83
2024/03/25 12:00:10;;;;;;;5.17;2.67;;;14.90;99.90;;;;;;5015106;28;20170;-83
2024/03/25 12:02:37;;;;;;;6.10;2.40;;;14.90;59.20;;;;;;5015519;28;20423;-82
2024/03/25 12:05:05;;;;;;;8.63;2.40;;;14.70;1.00;;;;;;5017067;28;20247;-84
2024/03/25 12:07:32;;;;;;;5.10;2.77;;;14.40;1.00;;;;;;5015029;28;20577;-83
2024/03/25 12:12:45;;;;;;;8.63;4.30;;;14.60;51.10;;;;;;5017591;28;20241;-83
2024/03/25 12:15:11;;;;;;;6.70;3.10;;;14.70;99.90;;;;;;5015121;28;20171;-83
2024/03/25 12:17:37;;;;;;;7.17;3.47;;;14.80;99.90;;;;;;5016697;28;20225;-84
2024/03/25 12:20:03;;;;;;;7.03;3.57;;;14.70;99.90;;;;;;5017040;28;20573;-82
2024/03/25 12:22:30;;;;;;;5.93;3.23;;;14.00;99.90;;;;;;5016374;28;20222;-83
2024/03/25 12:25:05;;;;;;;6.50;2.87;;;13.50;99.90;;;;;;5017662;28;20210;-82
2024/03/25 12:27:32;;;;;;;6.40;3.17;;;13.10;1.00;;;;;;5015641;28;20253;-83
2024/03/25 12:30:06;;;;;;;5.93;2.93;;;13.20;99.90;;;;;;5015083;28;20178;-83
2024/03/25 12:32:41;;;;;;;6.30;2.93;;;13.40;1.00;;;;;;5015237;28;20170;-81
2024/03/25 12:35:08;;;;;;;4.47;2.53;;;13.60;1.00;;;;;;5014438;28;20180;-82
2024/03/25 12:37:34;;;;;;;4.83;2.63;;;13.40;66.90;;;;;;5014416;28;20185;-83
2024/03/25 12:40:00;;;;;;;5.23;2.40;;;13.20;54.60;;;;;;5013805;28;20174;-83
2024/03/25 12:42:29;;;;;;;6.23;2.43;;;13.30;1.00;;;;;;5013856;28;20174;-84
2024/03/25 12:44:55;;;;;;;6.10;2.53;;;13.60;1.00;;;;;;5015396;28;20206;-84
2024/03/25 12:47:21;;;;;;;7.07;2.80;;;13.80;1.00;;;;;;5013380;28;20204;-82
2024/03/25 12:49:46;;;;;;;5.07;2.00;;;14.10;99.90;;;;;;5015255;28;20182;-81
2024/03/25 12:52:12;;;;;;;4.80;2.40;;;14.30;99.90;;;;;;5013359;28;20171;-82